EST,Max TemperatureF,Mean TemperatureF,Min TemperatureF,Max Dew PointF,MeanDew PointF,Min DewpointF,Max Humidity, Mean Humidity, Min Humidity, Max Sea Level PressureIn, Mean Sea Level PressureIn, Min Sea Level PressureIn, Max VisibilityMiles, Mean VisibilityMiles, Min VisibilityMiles, Max Wind SpeedMPH, Mean Wind SpeedMPH, Max Gust SpeedMPH,PrecipitationIn, CloudCover, Events, WindDirDegrees
2012-11-1,62,48,35,41,35,32,100,69,34,29.93,29.86,29.80,10,10,10,14,7,23,0.00,0,,255
2012-11-2,71,52,32,52,41,32,100,68,35,30.00,29.93,29.84,10,10,10,17,7,25,0.00,0,,247
2012-11-3,68,52,37,50,42,34,100,73,35,30.13,30.06,29.96,10,10,10,8,2,,0.00,0,,52
2012-11-4,80,63,46,64,57,46,100,86,45,30.06,29.97,29.89,10,10,3,13,4,17,0.00,1,Rain-Thunderstorm,234
2012-11-5,60,52,44,55,47,41,100,85,48,30.08,30.02,29.94,10,10,7,14,7,17,0.04,3,Rain,19
2012-11-6,51,45,37,46,42,37,100,91,76,30.06,29.98,29.90,10,10,7,14,8,16,0.12,4,Rain,7
2012-11-7,57,46,35,43,39,36,100,83,47,29.97,29.90,29.84,10,10,10,12,5,16,0.07,2,,312
2012-11-8,62,48,33,45,38,32,100,81,34,30.14,30.06,29.97,10,9,2,12,5,18,0.00,0,,293
2012-11-9,64,47,30,45,37,30,100,78,32,30.30,30.24,30.14,10,10,10,9,2,,0.00,0,,351
2012-11-10,69,51,33,50,42,34,100,77,35,30.40,30.36,30.29,10,10,10,9,1,,0.00,0,,142
2012-11-11,71,56,42,63,55,43,100,91,69,30.47,30.42,30.39,10,10,4,12,3,17,0.00,2,,67
2012-11-12,78,66,55,68,61,55,100,89,44,30.39,30.30,30.22,10,8,0,16,4,21,0.00,2,Fog-Rain,114
2012-11-13,73,62,50,68,59,50,100,94,73,30.32,30.22,30.17,10,9,2,14,3,18,0.05,5,Rain,8
2012-11-14,51,48,44,48,45,43,100,88,76,30.39,30.33,30.28,10,10,7,16,11,22,0.00,8,Rain,21
2012-11-15,50,46,41,50,46,41,100,100,100,30.31,30.22,30.18,10,7,2,16,9,26,0.79,8,Rain-Thunderstorm,1
2012-11-16,57,50,44,50,47,43,100,89,67,30.33,30.26,30.22,10,9,4,14,8,20,0.00,6,,10
2012-11-17,53,47,41,48,44,37,93,82,76,30.37,30.33,30.30,10,10,10,15,10,20,0.00,4,,19
2012-11-18,53,50,46,54,50,46,100,98,82,30.30,30.23,30.16,10,9,5,20,12,29,0.93,8,Rain-Thunderstorm,360
2012-11-19,59,55,51,54,52,50,100,92,77,30.21,30.16,30.10,10,10,5,17,13,26,0.00,7,,357
2012-11-20,62,53,42,54,51,43,100,91,68,30.14,30.09,30.04,10,10,10,13,6,18,0.00,3,,349
2012-11-21,60,50,41,48,44,39,100,82,55,30.14,30.09,30.06,10,10,4,15,5,20,0.00,0,,359
2012-11-22,62,48,33,39,35,32,100,67,32,30.20,30.16,30.12,10,10,10,15,7,24,0.00,0,,345
2012-11-23,68,49,30,46,39,30,100,76,37,30.19,30.08,29.93,10,10,10,10,2,,0.00,0,,237
2012-11-24,59,46,33,46,37,32,100,67,36,30.12,30.01,29.92,10,10,10,13,7,17,0.00,0,,312
2012-11-25,53,42,30,41,33,27,100,78,40,30.22,30.15,30.11,10,10,2,9,5,,0.00,0,,53
2012-11-26,68,49,30,43,35,30,100,73,24,30.27,30.20,30.15,10,9,0,9,2,,0.00,0,Fog,220
2012-11-27,60,46,33,54,45,34,100,90,52,30.21,30.18,30.07,10,9,4,14,1,17,0.21,3,Rain,260
2012-11-28,57,50,37,50,45,37,100,87,51,30.36,30.27,30.17,10,8,2,13,6,16,0.00,4,,6
2012-11-29,55,42,30,41,36,30,100,94,58,30.49,30.43,30.40,10,9,5,8,1,,0.00,0,,52
2012-11-30,62,48,33,52,43,34,100,89,55,30.42,30.37,30.33,10,9,1,8,1,,0.00,0,,102